Terminal Aerodrome Forecast
Issued by NWS Sterling, VA

Current Version | Previous Version | Graphics & Text | Print | Product List | Glossary On
Versions: 1 2 3 4 5 6 7 8 9 10 11 12 13 14 15 16 17 18 19 20 21 22 23 24 25 26 27 28 29 30 31 32 33 34
000
FTUS41 KLWX 021730
TAFIAD
TAF
KIAD 021730Z 0218/0324 03008KT 5SM -RA BKN008 OVC015
     FM030300 05006KT 5SM -RA BR BKN004 OVC008
     FM031600 04006KT P6SM OVC008
     FM031800 05006KT P6SM OVC015
     FM032200 06006KT 6SM -RA OVC015=

USA.gov is the U.S. government's official web portal to all federal, state and local government web resources and services.